Flight Track Log - Related Links

Times and Time Zones

All times are in EDT time to prevent confusion due to time zone crossing. See the SWA1586 flight status page for this flight to view local times or setup timezone preferences in your user account.

Time Position Orientation Groundspeed Altitude Reporting Facility
EDT Latitude Longitude Course Direction KTS MPH feet Rate Location/Type
Sat 05:07:13 PM 33.4167 -112.0667 239° Southwest 207 238 2,900  Level Phoenix TRACON
Sat 05:08:09 PM 33.4042 -112.1378 258° West 224 258 5,700 2,769 Climbing Albuquerque Center
Sat 05:09:10 PM 33.3861 -112.2169 255° West 247 284 8,300 2,927 Climbing Albuquerque Center
Sat 05:10:12 PM 33.3983 -112.3111 279° West 294 338 11,700 3,171 Climbing Albuquerque Center
Sat 05:11:13 PM 33.4339 -112.4011 295° West 299 344 14,800 2,537 Climbing Albuquerque Center
Sat 05:12:15 PM 33.4486 -112.5022 280° West 316 364 16,900 2,244 Climbing Albuquerque Center
Sat 05:13:16 PM 33.4500 -112.6289 271° West 355 409 19,400 2,244 Climbing Albuquerque Center
Sat 05:14:18 PM 33.4519 -112.7489 271° West 361 415 21,500 2,146 Climbing Albuquerque Center
Sat 05:15:19 PM 33.4619 -112.8739 276° West 371 427 23,800 2,000 Climbing Albuquerque Center
Sat 05:16:21 PM 33.4875 -112.9992 284° West 384 442 25,600 1,659 Climbing Albuquerque Center
Sat 05:17:22 PM 33.5375 -113.1200 296° West 409 471 27,200 1,854 Climbing Albuquerque Center
Sat 05:18:24 PM 33.6200 -113.2550 306° West 418 481 29,400 1,887 Climbing Albuquerque Center
Sat 05:19:26 PM 33.6878 -113.3614 307° West 418 481 31,100 1,756 Climbing Albuquerque Center
Sat 05:20:27 PM 33.7342 -113.4847 294° West 412 474 33,000 1,902 Climbing Albuquerque Center
Sat 05:21:29 PM 33.7589 -113.6106 283° West 391 450 35,000 1,463 Climbing Albuquerque Center
Sat 05:22:30 PM 33.7867 -113.7325 285° West 383 441 36,000 488 Climbing Albuquerque Center
Sat 05:23:32 PM 33.8133 -113.8547 285° West 379 436 36,000  Level Albuquerque Center
Sat 05:24:33 PM 33.8414 -113.9761 286° West 378 435 36,000  Level Albuquerque Center
Sat 05:25:35 PM 33.9089 -114.1092 301° West 383 441 36,000  Level Albuquerque Center
Sat 05:26:39 PM 33.9603 -114.2200 299° West 386 444 36,000  Level Los Angeles Center
Sat 05:27:41 PM 34.0131 -114.3325 300° West 387 445 36,000  Level Los Angeles Center
Sat 05:28:43 PM 34.0742 -114.4672 299° West 384 442 36,000  Level Los Angeles Center
Sat 05:29:45 PM 34.1256 -114.5797 299° West 385 443 36,000  Level Los Angeles Center
Sat 05:30:59 PM 34.1764 -114.6928 299° West 384 442 36,000  Level Los Angeles Center
Sat 05:32:01 PM 34.2381 -114.8292 299° West 386 444 36,000  Level Los Angeles Center
Sat 05:33:03 PM 34.2903 -114.9414 299° West 385 443 36,000  Level Los Angeles Center
Sat 05:34:05 PM 34.3411 -115.0547 299° West 385 443 36,000  Level Los Angeles Center
Sat 05:35:07 PM 34.4019 -115.1908 298° West 383 441 36,000  Level Los Angeles Center
Sat 05:36:08 PM 34.4531 -115.3036 299° West 384 442 36,000  Level Los Angeles Center
Sat 05:37:10 PM 34.5042 -115.4178 299° West 385 443 36,000  Level Los Angeles Center
Sat 05:38:12 PM 34.5547 -115.5317 298° West 385 443 36,000  Level Los Angeles Center
Sat 05:39:14 PM 34.6072 -115.6508 298° West 387 445 36,000  Level Los Angeles Center
Sat 05:40:16 PM 34.6583 -115.7647 299° West 385 443 36,000  Level Los Angeles Center
Sat 05:41:18 PM 34.7086 -115.8786 298° West 384 442 36,000  Level Los Angeles Center
Sat 05:42:31 PM 34.7594 -115.9928 298° West 385 443 36,000  Level Los Angeles Center
Sat 05:43:34 PM 34.8297 -116.1531 298° West 385 443 36,000  Level Los Angeles Center
Sat 05:44:36 PM 34.8786 -116.2683 297° West 384 442 36,000  Level Los Angeles Center
Sat 05:45:37 PM 34.9283 -116.3836 298° West 386 444 36,000  Level Los Angeles Center
Sat 05:46:39 PM 34.9794 -116.4992 298° West 387 445 36,000  Level Los Angeles Center
Sat 05:47:41 PM 35.0283 -116.6142 297° West 384 442 36,000  Level Los Angeles Center
Sat 05:48:43 PM 35.0783 -116.7297 298° West 386 444 36,000  Level Los Angeles Center
Sat 05:49:45 PM 35.1381 -116.8681 298° West 386 444 36,000  Level Los Angeles Center
Sat 05:50:47 PM 35.1875 -116.9836 298° West 386 444 36,000  Level Los Angeles Center
Sat 05:51:48 PM 35.2383 -117.0989 298° West 387 445 36,000  Level Los Angeles Center
Sat 05:53:02 PM 35.2872 -117.2153 297° West 387 445 36,000  Level Los Angeles Center
Sat 05:54:04 PM 35.3461 -117.3544 297° West 388 447 36,000  Level Los Angeles Center
Sat 05:55:06 PM 35.4050 -117.4925 298° West 387 445 36,000  Level Los Angeles Center
Sat 05:56:08 PM 35.4525 -117.6078 297° West 385 443 36,000  Level Los Angeles Center
Sat 05:57:10 PM 35.5006 -117.7228 297° West 383 441 36,000  Level Los Angeles Center
Sat 05:58:13 PM 35.5472 -117.8361 297° West 379 436 36,000  Level Los Angeles Center
Sat 05:59:13 PM 35.5944 -117.9489 297° West 374 430 36,000  Level Los Angeles Center
Sat 06:00:15 PM 35.6417 -118.0614 297° West 373 429 36,000  Level Los Angeles Center
Sat 06:01:17 PM 35.6978 -118.1972 297° West 373 429 36,000  Level Los Angeles Center
Sat 06:02:19 PM 35.7436 -118.3094 297° West 371 427 36,000  Level Los Angeles Center
Sat 06:03:20 PM 35.7886 -118.4211 296° West 366 421 36,000  Level Los Angeles Center
Sat 06:04:22 PM 35.8356 -118.5356 297° West 368 423 36,000  Level Los Angeles Center
Sat 06:05:36 PM 35.8811 -118.6492 296° West 371 427 36,000  Level Los Angeles Center
Sat 06:06:38 PM 35.9389 -118.7911 297° West 386 444 36,000  Level Los Angeles Center
Sat 06:07:42 PM 35.9958 -118.9328 296° West 388 447 36,000  Level Oakland Center
Sat 06:08:43 PM 36.0425 -119.0514 296° West 388 447 36,000  Level Oakland Center
Sat 06:09:44 PM 36.0908 -119.1697 297° West 387 445 36,000  Level Oakland Center
Sat 06:10:46 PM 36.1367 -119.2886 296° West 387 445 36,000  Level Oakland Center
Sat 06:11:47 PM 36.1833 -119.4089 296° West 389 448 36,000  Level Oakland Center
Sat 06:12:48 PM 36.2314 -119.5278 297° West 389 448 36,000  Level Oakland Center
Sat 06:13:49 PM 36.2775 -119.6469 296° West 387 445 36,000 -585 Level Oakland Center
Sat 06:14:51 PM 36.3336 -119.7906 296° West 387 445 34,800 -1,024 Descending Oakland Center
Sat 06:15:52 PM 36.3792 -119.9072 296° West 381 438 33,900 -934 Descending Oakland Center
Sat 06:16:53 PM 36.4256 -120.0247 296° West 381 438 32,900 -984 Descending Oakland Center
Sat 06:17:54 PM 36.4728 -120.1453 296° West 387 445 31,900 -1,317 Descending Oakland Center
Sat 06:18:56 PM 36.5197 -120.2669 296° West 392 451 30,200 -2,000 Descending Oakland Center
Sat 06:19:57 PM 36.5661 -120.3906 295° West 396 456 27,800 -1,869 Descending Oakland Center
Sat 06:20:58 PM 36.6108 -120.5069 296° West 382 440 26,400 -1,230 Descending Oakland Center
Sat 06:21:59 PM 36.6536 -120.6197 295° West 368 423 25,300 -1,561 Descending Oakland Center
Sat 06:23:01 PM 36.6944 -120.7294 295° West 356 410 23,200 -1,805 Descending Oakland Center
Sat 06:24:02 PM 36.7678 -120.8422 309° West 356 410 21,600 -1,230 Descending Oakland Center
Sat 06:25:03 PM 36.8378 -120.9203 318° Northwest 351 404 20,700 -732 Descending Oakland Center
Sat 06:26:05 PM 36.9089 -121.0017 318° Northwest 346 398 20,100 -634 Descending Oakland Center
Sat 06:27:06 PM 36.9814 -121.0836 318° Northwest 350 403 19,400 -1,426 Descending Oakland Center
Sat 06:28:07 PM 37.0550 -121.1708 317° Northwest 331 381 17,200 -1,918 Descending Oakland Center
Sat 06:29:08 PM 37.1119 -121.2361 318° Northwest 314 361 15,500 -1,707 Descending Oakland Center
Sat 06:30:10 PM 37.1739 -121.3072 318° Northwest 305 351 13,700 -1,805 Descending Oakland Center
Sat 06:31:11 PM 37.2347 -121.3778 317° Northwest 300 345 11,800 -1,525 Descending Oakland Center
Sat 06:32:12 PM 37.2919 -121.4464 316° Northwest 290 334 10,600 -1,623 Descending Oakland Center
Sat 06:33:13 PM 37.3567 -121.5192 318° Northwest 266 306 8,500 -1,756 Descending Oakland Center
Sat 06:34:15 PM 37.4069 -121.5781 317° Northwest 271 312 7,000 -1,268 Descending Oakland Center
Sat 06:35:16 PM 37.4497 -121.6564 305° West 277 319 5,900 -541 Descending Oakland Center
Sat 06:36:17 PM 37.4808 -121.7400 295° West 269 310 5,900  Level Oakland Center
Sat 06:37:18 PM 37.5133 -121.8203 297° West 262 302 5,900 -443 Level Oakland Center
Sat 06:38:19 PM 37.5475 -121.9092 296° West 242 278 5,000 -1,082 Descending Oakland Center
Sat 06:39:20 PM 37.5636 -121.9825 286° West 222 255 3,700 -1,180 Descending Oakland Center
Sat 06:40:21 PM 37.5911 -122.0522 296° West 227 261 2,600 -683 Descending Oakland Center
Sat 06:41:23 PM 37.6250 -122.1006 312° West 201 231 2,300 -508 Descending Oakland Center
Sat 06:42:31 PM 37.6500 -122.1333 314° West 132 152 1,500 -672 Descending Northern Cal TRACON
Sat 06:43:37 PM 37.6833 -122.1833 310° West 128 147 800 -667 Descending Northern Cal TRACON
Sat 06:44:37 PM 37.7000 -122.2167 302° West 125 144 100 -700 Descending Northern Cal TRACON
Sat 06:47:00 PM 37.7167 -122.2167 270° West  Level FlightAware Approximate
Sat 06:54:00 PM 37.7213 -122.2207 270° West  Level Estimated

Login

Don't have an account? Register now (free) for customized features, flight alerts, and more!